createdAt,value
2017-08-15T00:01:23.000Z,9.45
2017-08-15T00:03:50.700Z,8.98
2017-08-15T00:06:18.324Z,8.90
2017-08-15T00:08:45.979Z,8.63
2017-08-15T00:11:13.613Z,8.68
2017-08-15T00:13:41.253Z,10.00
2017-08-15T00:16:08.934Z,7.97
2017-08-15T00:18:36.580Z,9.13
2017-08-15T00:21:04.257Z,8.38
2017-08-15T00:23:31.892Z,9.43
2017-08-15T00:26:00.289Z,9.48
2017-08-15T00:28:27.965Z,8.43
2017-08-15T00:30:55.600Z,9.20
2017-08-15T00:33:23.265Z,8.27
2017-08-15T00:35:50.902Z,7.90
2017-08-15T00:38:18.537Z,7.78
2017-08-15T00:40:46.230Z,8.93
2017-08-15T00:43:13.851Z,8.50
2017-08-15T00:45:41.521Z,8.60
2017-08-15T00:48:09.147Z,9.30
2017-08-15T00:50:36.775Z,8.43
2017-08-15T00:53:04.445Z,9.25
2017-08-15T00:55:32.081Z,9.10
2017-08-15T00:57:59.757Z,8.20
2017-08-15T01:00:28.148Z,8.88
2017-08-15T01:02:55.777Z,9.38
2017-08-15T01:05:24.211Z,8.70
2017-08-15T01:07:51.848Z,10.27
2017-08-15T01:10:19.596Z,9.55
2017-08-15T01:12:47.227Z,9.20
2017-08-15T01:15:14.921Z,9.57
2017-08-15T01:17:42.571Z,9.23
2017-08-15T01:20:10.204Z,9.75
2017-08-15T01:22:37.884Z,10.02
2017-08-15T01:25:05.506Z,8.57
2017-08-15T01:27:33.136Z,10.40
2017-08-15T01:30:00.798Z,9.88
2017-08-15T01:32:28.424Z,9.43
2017-08-15T01:34:56.081Z,9.45
2017-08-15T01:37:23.729Z,10.05
2017-08-15T01:39:51.365Z,9.88
2017-08-15T01:42:19.035Z,10.57
2017-08-15T01:44:46.747Z,9.13
2017-08-15T01:47:14.425Z,8.85
2017-08-15T01:49:42.051Z,9.13
2017-08-15T01:52:09.704Z,8.65
2017-08-15T01:54:37.363Z,10.00
2017-08-15T01:57:04.997Z,9.38
2017-08-15T01:59:32.667Z,10.25
2017-08-15T02:02:01.059Z,9.88
2017-08-15T02:04:28.686Z,9.32
2017-08-15T02:06:57.116Z,10.40
2017-08-15T02:09:24.781Z,9.73
2017-08-15T02:11:52.453Z,10.65
2017-08-15T02:14:20.089Z,9.73
2017-08-15T02:16:48.488Z,10.05
2017-08-15T02:19:16.139Z,9.45
2017-08-15T02:21:43.805Z,9.10
2017-08-15T02:24:11.456Z,9.90
2017-08-15T02:26:39.088Z,9.07
2017-08-15T02:29:06.732Z,10.50
2017-08-15T02:31:34.458Z,9.93
2017-08-15T02:34:02.101Z,10.15
2017-08-15T02:36:29.767Z,9.60
2017-08-15T02:38:57.400Z,10.40
2017-08-15T02:41:25.038Z,9.18
2017-08-15T02:43:52.693Z,10.27
2017-08-15T02:46:20.398Z,9.27
2017-08-15T02:48:48.121Z,10.73
2017-08-15T02:51:15.760Z,10.48
2017-08-15T02:53:43.442Z,9.95
2017-08-15T02:56:11.095Z,10.45
2017-08-15T02:58:38.716Z,9.40
2017-08-15T03:01:06.366Z,9.45
2017-08-15T03:03:33.997Z,9.95
2017-08-15T03:06:01.629Z,9.15
2017-08-15T03:08:29.295Z,9.57
2017-08-15T03:10:56.934Z,9.75
2017-08-15T03:13:24.636Z,8.75
2017-08-15T03:15:53.028Z,9.82
2017-08-15T03:18:20.660Z,9.70
2017-08-15T03:20:48.328Z,9.63
2017-08-15T03:23:15.952Z,9.80
2017-08-15T03:25:43.611Z,10.00
2017-08-15T03:28:11.248Z,9.63
2017-08-15T03:30:38.868Z,9.48
2017-08-15T03:33:06.540Z,10.70
2017-08-15T03:35:34.154Z,9.38
2017-08-15T03:38:01.815Z,9.50
2017-08-15T03:40:30.200Z,10.05
2017-08-15T03:42:57.833Z,9.77
2017-08-15T03:45:25.492Z,9.02
2017-08-15T03:47:53.128Z,9.35
2017-08-15T03:50:20.803Z,9.35
2017-08-15T03:52:48.441Z,10.55
2017-08-15T03:55:16.066Z,9.85
2017-08-15T03:57:43.753Z,8.63
2017-08-15T04:00:11.381Z,9.93
2017-08-15T04:02:39.058Z,9.70
2017-08-15T04:05:06.745Z,8.90
2017-08-15T04:07:35.135Z,9.13
2017-08-15T04:10:02.811Z,9.30
2017-08-15T04:12:30.435Z,10.70
2017-08-15T04:14:58.099Z,8.52
2017-08-15T04:17:25.767Z,10.55
2017-08-15T04:19:53.391Z,9.77
2017-08-15T04:22:21.066Z,9.07
2017-08-15T04:24:48.699Z,9.52
2017-08-15T04:27:16.371Z,10.02
2017-08-15T04:29:45.491Z,9.60
2017-08-15T04:32:13.137Z,10.30
2017-08-15T04:34:40.818Z,10.15
2017-08-15T04:37:08.445Z,9.55
2017-08-15T04:39:36.113Z,10.65
2017-08-15T04:42:03.753Z,9.52
2017-08-15T04:44:31.420Z,10.07
2017-08-15T04:46:59.111Z,8.05
2017-08-15T04:49:26.754Z,9.35
2017-08-15T04:51:54.423Z,9.90
2017-08-15T04:54:22.061Z,8.60
2017-08-15T04:56:49.752Z,9.73
2017-08-15T04:59:17.456Z,8.70
2017-08-15T05:01:45.091Z,8.38
2017-08-15T05:04:12.765Z,8.80
2017-08-15T05:06:40.387Z,8.10
2017-08-15T05:09:08.062Z,9.65
2017-08-15T05:11:35.716Z,7.37
2017-08-15T05:14:03.350Z,8.10
2017-08-15T05:16:31.008Z,9.73
2017-08-15T05:18:58.636Z,8.10
2017-08-15T05:21:26.235Z,8.17
2017-08-15T05:23:53.876Z,8.33
2017-08-15T05:26:21.486Z,9.03
2017-08-15T05:28:49.139Z,8.40
2017-08-15T05:31:16.748Z,6.90
2017-08-15T05:33:45.124Z,7.83
2017-08-15T05:36:12.797Z,8.67
2017-08-15T05:38:40.431Z,8.53
2017-08-15T05:41:08.078Z,8.87
2017-08-15T05:43:35.697Z,7.20
2017-08-15T05:46:04.117Z,7.77
2017-08-15T05:48:31.845Z,8.20
2017-08-15T05:50:59.469Z,8.53
2017-08-15T05:53:27.129Z,8.23
2017-08-15T05:55:54.734Z,7.20
2017-08-15T05:58:22.349Z,8.10
2017-08-15T06:00:49.997Z,6.60
2017-08-15T06:03:17.613Z,8.00
2017-08-15T06:05:45.257Z,7.20
2017-08-15T06:08:12.877Z,8.00
2017-08-15T06:10:41.258Z,7.67
2017-08-15T06:13:08.927Z,7.37
2017-08-15T06:15:36.541Z,6.70
2017-08-15T06:18:04.953Z,6.10
2017-08-15T06:20:32.705Z,8.13
2017-08-15T06:23:00.315Z,6.90
2017-08-15T06:25:27.967Z,8.13
2017-08-15T06:27:55.585Z,6.93
2017-08-15T06:30:23.997Z,6.77
2017-08-15T06:32:51.593Z,7.10
2017-08-15T06:35:19.987Z,6.03
2017-08-15T06:37:47.625Z,7.03
2017-08-15T06:40:15.241Z,6.27
2017-08-15T06:42:42.886Z,5.90
2017-08-15T06:45:10.479Z,6.20
2017-08-15T06:47:38.076Z,6.10
2017-08-15T06:50:05.708Z,6.20
2017-08-15T06:52:33.327Z,6.10
2017-08-15T06:55:00.978Z,6.23
2017-08-15T06:57:28.629Z,6.77
2017-08-15T06:59:56.241Z,6.17
2017-08-15T07:02:23.885Z,5.77
2017-08-15T07:04:51.498Z,6.50
2017-08-15T07:07:19.144Z,6.00
2017-08-15T07:09:46.749Z,6.20
2017-08-15T07:12:14.344Z,5.63
2017-08-15T07:14:42.009Z,6.80
2017-08-15T07:17:10.382Z,6.80
2017-08-15T07:19:38.028Z,6.57
2017-08-15T07:22:05.630Z,5.97
2017-08-15T07:24:33.232Z,5.83
2017-08-15T07:27:00.870Z,6.30
2017-08-15T07:29:28.468Z,5.93
2017-08-15T07:31:56.107Z,5.87
2017-08-15T07:34:23.716Z,5.70
2017-08-15T07:36:51.325Z,6.23
2017-08-15T07:39:19.166Z,6.17
2017-08-15T07:41:46.828Z,5.60
2017-08-15T07:44:15.401Z,6.73
2017-08-15T07:46:43.767Z,6.40
2017-08-15T07:49:11.378Z,5.60
2017-08-15T07:51:39.041Z,5.63
2017-08-15T07:54:07.420Z,7.20
2017-08-15T07:56:35.829Z,6.03
2017-08-15T07:59:03.445Z,5.67
2017-08-15T08:01:31.077Z,6.67
2017-08-15T08:03:59.493Z,6.00
2017-08-15T08:06:27.095Z,5.50
2017-08-15T08:08:54.728Z,6.37
2017-08-15T08:11:23.101Z,6.73
2017-08-15T08:13:51.480Z,6.23
2017-08-15T08:16:19.155Z,6.50
2017-08-15T08:18:46.753Z,6.23
2017-08-15T08:21:15.758Z,6.13
2017-08-15T08:23:43.366Z,6.90
2017-08-15T08:26:11.789Z,5.83
2017-08-15T08:28:39.464Z,5.60
2017-08-15T08:31:07.066Z,5.93
2017-08-15T08:33:34.701Z,6.27
2017-08-15T08:36:02.298Z,6.33
2017-08-15T08:38:29.924Z,6.10
2017-08-15T08:40:57.559Z,6.73
2017-08-15T08:43:25.176Z,5.93
2017-08-15T08:45:52.821Z,6.23
2017-08-15T08:48:20.461Z,6.20
2017-08-15T08:50:48.841Z,6.70
2017-08-15T08:53:16.504Z,5.43
2017-08-15T08:55:44.122Z,5.90
2017-08-15T08:58:12.531Z,6.83
2017-08-15T09:00:40.154Z,6.97
2017-08-15T09:03:07.767Z,6.00
2017-08-15T09:05:36.197Z,5.80
2017-08-15T09:08:03.810Z,6.63
2017-08-15T09:10:31.448Z,6.20
2017-08-15T09:12:59.072Z,6.93
2017-08-15T09:15:26.688Z,6.50
2017-08-15T09:17:54.325Z,6.50
2017-08-15T09:20:21.940Z,6.27
2017-08-15T09:22:49.640Z,6.13
2017-08-15T09:25:17.256Z,6.27
2017-08-15T09:27:44.861Z,6.70
2017-08-15T09:30:12.510Z,6.50
2017-08-15T09:32:40.213Z,5.90
2017-08-15T09:35:07.856Z,6.47
2017-08-15T09:37:35.468Z,7.03
2017-08-15T09:40:04.763Z,6.03
2017-08-15T09:42:32.406Z,6.77
2017-08-15T09:45:00.037Z,6.17
2017-08-15T09:47:27.681Z,7.40
2017-08-15T09:49:55.271Z,6.73
2017-08-15T09:52:22.890Z,7.87
2017-08-15T09:54:50.552Z,6.33
2017-08-15T09:57:18.176Z,6.87
2017-08-15T09:59:45.820Z,7.57
2017-08-15T10:02:13.441Z,7.13
2017-08-15T10:04:41.102Z,7.43
2017-08-15T10:07:08.709Z,7.10
2017-08-15T10:09:36.320Z,7.00
2017-08-15T10:12:03.972Z,7.60
2017-08-15T10:14:31.581Z,7.10
2017-08-15T10:16:59.220Z,6.77
2017-08-15T10:19:27.601Z,6.90
2017-08-15T10:21:55.216Z,6.30
2017-08-15T10:24:23.617Z,7.20
2017-08-15T10:26:51.231Z,6.43
2017-08-15T10:29:19.664Z,6.67
2017-08-15T10:31:47.282Z,6.50
2017-08-15T10:34:14.898Z,6.33
2017-08-15T10:36:43.298Z,6.20
2017-08-15T10:39:10.913Z,6.30
2017-08-15T10:41:38.542Z,6.13
2017-08-15T10:44:06.911Z,7.30
2017-08-15T10:46:35.272Z,5.93
2017-08-15T10:49:03.693Z,6.80
2017-08-15T10:51:31.292Z,7.00
2017-08-15T10:53:59.714Z,6.37
2017-08-15T10:56:27.308Z,5.73
2017-08-15T10:58:54.911Z,5.67
2017-08-15T11:01:22.554Z,5.60
2017-08-15T11:03:50.152Z,7.07
2017-08-15T11:06:17.815Z,7.00
2017-08-15T11:08:45.436Z,6.70
2017-08-15T11:11:13.033Z,6.57
2017-08-15T11:13:40.677Z,5.10
2017-08-15T11:16:08.287Z,6.20
2017-08-15T11:18:35.926Z,5.47
2017-08-15T11:21:03.544Z,5.53
2017-08-15T11:23:31.162Z,5.47
2017-08-15T11:25:58.795Z,4.63
2017-08-15T11:28:26.397Z,5.57
2017-08-15T11:30:54.050Z,5.00
2017-08-15T11:33:21.657Z,4.93
2017-08-15T11:35:49.290Z,4.33
2017-08-15T11:38:16.951Z,4.80
2017-08-15T11:40:44.562Z,5.20
2017-08-15T11:43:12.505Z,4.87
2017-08-15T11:45:40.117Z,5.30
2017-08-15T11:48:08.483Z,4.97
2017-08-15T11:50:36.131Z,5.00
2017-08-15T11:53:04.513Z,4.57
2017-08-15T11:55:32.150Z,4.53
2017-08-15T11:58:00.541Z,5.23
2017-08-15T12:00:28.153Z,5.00
2017-08-15T12:02:56.561Z,5.60
2017-08-15T12:05:24.165Z,5.10
2017-08-15T12:07:52.594Z,4.90
2017-08-15T12:10:20.217Z,5.67
2017-08-15T12:12:47.832Z,6.27
2017-08-15T12:15:15.478Z,5.10
2017-08-15T12:17:43.089Z,5.60
2017-08-15T12:20:10.734Z,4.60
2017-08-15T12:22:38.350Z,5.53
2017-08-15T12:25:05.960Z,5.57
2017-08-15T12:27:33.605Z,6.13
2017-08-15T12:30:01.976Z,6.90
2017-08-15T12:32:29.670Z,5.53
2017-08-15T12:34:57.268Z,4.63
2017-08-15T12:37:24.874Z,5.00
2017-08-15T12:39:52.519Z,5.23
2017-08-15T12:42:20.160Z,5.53
2017-08-15T12:44:47.803Z,5.03
2017-08-15T12:47:15.408Z,4.03
2017-08-15T12:49:43.010Z,4.03
2017-08-15T12:52:10.665Z,4.70
2017-08-15T12:54:38.272Z,4.03
2017-08-15T12:57:05.902Z,5.10
2017-08-15T12:59:33.515Z,4.50
2017-08-15T13:02:01.134Z,3.90
2017-08-15T13:04:28.759Z,5.30
2017-08-15T13:06:56.377Z,5.50
2017-08-15T13:09:24.021Z,4.90
2017-08-15T13:11:52.616Z,5.97
2017-08-15T13:14:20.777Z,4.90
2017-08-15T13:16:48.436Z,4.90
2017-08-15T13:19:16.048Z,4.97
2017-08-15T13:21:43.699Z,4.60
2017-08-15T13:24:11.310Z,4.83
2017-08-15T13:26:39.681Z,5.00
2017-08-15T13:29:07.317Z,5.43
2017-08-15T13:31:35.691Z,5.77
2017-08-15T13:34:03.330Z,5.20
2017-08-15T13:36:31.700Z,4.90
2017-08-15T13:39:00.069Z,4.93
2017-08-15T13:41:28.477Z,4.67
2017-08-15T13:43:56.097Z,4.80
2017-08-15T13:46:23.738Z,5.10
2017-08-15T13:48:51.339Z,4.60
2017-08-15T13:51:18.968Z,4.50
2017-08-15T13:53:46.737Z,4.90
2017-08-15T13:56:14.328Z,5.33
2017-08-15T13:58:41.960Z,5.23
2017-08-15T14:01:10.338Z,5.90
2017-08-15T14:03:37.940Z,5.63
2017-08-15T14:06:05.584Z,5.07
2017-08-15T14:08:33.191Z,5.80
2017-08-15T14:11:00.837Z,5.17
2017-08-15T14:13:28.447Z,5.13
2017-08-15T14:15:56.819Z,5.63
2017-08-15T14:18:25.230Z,5.80
2017-08-15T14:20:52.828Z,6.47
2017-08-15T14:23:21.240Z,6.27
2017-08-15T14:25:48.866Z,5.80
2017-08-15T14:28:16.480Z,5.10
2017-08-15T14:30:44.150Z,6.03
2017-08-15T14:33:11.755Z,6.83
2017-08-15T14:35:39.481Z,6.10
2017-08-15T14:38:07.079Z,5.37
2017-08-15T14:40:35.171Z,5.93
2017-08-15T14:43:02.838Z,5.90
2017-08-15T14:45:30.456Z,6.13
2017-08-15T14:47:58.088Z,7.20
2017-08-15T14:50:25.695Z,6.07
2017-08-15T14:52:53.300Z,6.93
2017-08-15T14:55:21.025Z,6.30
2017-08-15T14:57:48.673Z,6.40
2017-08-15T15:00:16.337Z,6.83
2017-08-15T15:02:43.950Z,6.07
2017-08-15T15:05:11.568Z,7.20
2017-08-15T15:07:39.201Z,6.40
2017-08-15T15:10:06.811Z,6.17
2017-08-15T15:12:34.469Z,6.63
2017-08-15T15:15:02.079Z,5.87
2017-08-15T15:17:30.467Z,5.70
2017-08-15T15:19:58.115Z,6.77
2017-08-15T15:22:25.722Z,6.60
2017-08-15T15:24:54.129Z,6.53
2017-08-15T15:27:21.739Z,6.07
2017-08-15T15:29:50.109Z,6.33
2017-08-15T15:32:17.761Z,5.87
2017-08-15T15:34:45.365Z,6.57
2017-08-15T15:37:13.021Z,7.07
2017-08-15T15:39:40.633Z,8.13
2017-08-15T15:42:08.247Z,7.20
2017-08-15T15:44:35.893Z,9.30
2017-08-15T15:47:03.492Z,6.70
2017-08-15T15:49:31.110Z,6.93
2017-08-15T15:51:58.707Z,6.60
2017-08-15T15:54:26.299Z,6.03
2017-08-15T15:56:53.930Z,6.93
2017-08-15T15:59:21.620Z,7.17
2017-08-15T16:01:49.274Z,5.67
2017-08-15T16:04:16.882Z,6.53
2017-08-15T16:06:45.039Z,5.80
2017-08-15T16:09:12.670Z,6.77
2017-08-15T16:11:40.287Z,6.30
2017-08-15T16:14:07.929Z,6.83
2017-08-15T16:16:35.541Z,6.63
2017-08-15T16:19:03.143Z,7.50
2017-08-15T16:21:31.553Z,6.10
2017-08-15T16:23:59.213Z,6.40
2017-08-15T16:26:26.862Z,6.60
2017-08-15T16:28:54.501Z,6.07
2017-08-15T16:31:22.122Z,6.53
2017-08-15T16:33:49.831Z,7.00
2017-08-15T16:36:18.205Z,6.30
2017-08-15T16:38:46.708Z,6.80
2017-08-15T16:41:14.685Z,6.40
2017-08-15T16:43:42.313Z,5.90
2017-08-15T16:46:09.943Z,6.90
2017-08-15T16:48:37.541Z,6.00
2017-08-15T16:51:13.398Z,6.50
2017-08-15T16:53:41.245Z,6.97
2017-08-15T16:56:09.617Z,6.40
2017-08-15T16:58:37.255Z,5.53
2017-08-15T17:01:05.628Z,6.00
2017-08-15T17:03:33.251Z,6.10
2017-08-15T17:06:00.883Z,5.70
2017-08-15T17:08:28.480Z,6.50
2017-08-15T17:10:56.168Z,6.30
2017-08-15T17:13:23.775Z,6.13
2017-08-15T17:15:51.390Z,5.53
2017-08-15T17:18:19.865Z,5.83
2017-08-15T17:20:47.508Z,6.57
2017-08-15T17:23:15.916Z,6.00
2017-08-15T17:25:43.528Z,6.47
2017-08-15T17:28:11.140Z,5.83
2017-08-15T17:30:38.782Z,6.50
2017-08-15T17:33:06.383Z,7.10
2017-08-15T17:35:34.034Z,6.60
2017-08-15T17:38:01.636Z,6.10
2017-08-15T17:40:29.255Z,5.80
2017-08-15T17:42:56.891Z,5.77
2017-08-15T17:45:24.503Z,6.40
2017-08-15T17:47:52.135Z,5.53
2017-08-15T17:50:20.537Z,6.30
2017-08-15T17:52:48.141Z,6.30
2017-08-15T17:55:16.554Z,5.43
2017-08-15T17:57:44.163Z,6.30
2017-08-15T18:00:12.569Z,6.30
2017-08-15T18:02:40.181Z,6.60
2017-08-15T18:05:07.789Z,6.37
2017-08-15T18:07:35.434Z,6.20
2017-08-15T18:10:05.017Z,6.03
2017-08-15T18:12:32.761Z,5.63
2017-08-15T18:15:00.367Z,5.80
2017-08-15T18:17:27.966Z,6.10
2017-08-15T18:19:55.652Z,5.23
2017-08-15T18:22:23.325Z,6.30
2017-08-15T18:24:51.039Z,6.03
2017-08-15T18:27:18.648Z,6.50
2017-08-15T18:29:46.251Z,6.20
2017-08-15T18:32:13.911Z,6.87
2017-08-15T18:34:41.510Z,6.13
2017-08-15T18:37:09.947Z,5.87
2017-08-15T18:39:37.544Z,6.60
2017-08-15T18:42:05.215Z,6.47
2017-08-15T18:44:32.864Z,6.50
2017-08-15T18:47:00.469Z,6.70
2017-08-15T18:49:28.108Z,6.33
2017-08-15T18:51:56.479Z,6.47
2017-08-15T18:54:24.859Z,6.63
2017-08-15T18:56:52.504Z,5.90
2017-08-15T18:59:20.113Z,5.53
2017-08-15T19:01:47.754Z,6.73
2017-08-15T19:04:15.393Z,6.40
2017-08-15T19:06:43.019Z,6.10
2017-08-15T19:09:10.653Z,7.17
2017-08-15T19:11:38.269Z,6.47
2017-08-15T19:14:05.911Z,7.57
2017-08-15T19:16:33.527Z,7.67
2017-08-15T19:19:01.123Z,6.43
2017-08-15T19:21:28.752Z,7.17
2017-08-15T19:23:57.134Z,5.70
2017-08-15T19:26:24.950Z,7.00
2017-08-15T19:28:52.713Z,6.13
2017-08-15T19:31:21.083Z,6.80
2017-08-15T19:33:49.529Z,6.43
2017-08-15T19:36:17.175Z,6.13
2017-08-15T19:38:44.964Z,6.30
2017-08-15T19:41:12.704Z,6.20
2017-08-15T19:43:40.367Z,6.60
2017-08-15T19:46:08.026Z,6.40
2017-08-15T19:48:35.696Z,6.40
2017-08-15T19:51:03.494Z,6.97
2017-08-15T19:53:31.123Z,6.07
2017-08-15T19:55:59.494Z,6.30
2017-08-15T19:58:27.132Z,6.40
2017-08-15T20:00:55.507Z,6.00
2017-08-15T20:03:23.157Z,7.30
2017-08-15T20:05:50.764Z,5.60
2017-08-15T20:08:18.376Z,6.23
2017-08-15T20:10:46.040Z,6.60
2017-08-15T20:13:13.643Z,5.53
2017-08-15T20:15:41.275Z,5.77
2017-08-15T20:18:09.674Z,5.50
2017-08-15T20:20:37.319Z,5.93
2017-08-15T20:23:04.987Z,5.77
2017-08-15T20:25:32.658Z,6.07
2017-08-15T20:28:00.322Z,6.43
2017-08-15T20:30:29.046Z,6.07
2017-08-15T20:32:56.655Z,6.13
2017-08-15T20:35:24.297Z,6.00
2017-08-15T20:37:52.719Z,6.13
2017-08-15T20:40:20.376Z,6.20
2017-08-15T20:42:48.037Z,10.10
2017-08-15T20:45:16.424Z,5.90
2017-08-15T20:47:44.061Z,5.60
2017-08-15T20:50:12.441Z,6.00
2017-08-15T20:52:40.072Z,6.50
2017-08-15T20:55:08.460Z,6.50
2017-08-15T20:57:36.072Z,7.00
2017-08-15T21:00:04.488Z,6.70
2017-08-15T21:02:32.094Z,6.77
2017-08-15T21:04:59.756Z,6.37
2017-08-15T21:07:27.363Z,6.80
2017-08-15T21:09:54.971Z,6.63
2017-08-15T21:12:22.630Z,6.63
2017-08-15T21:14:50.260Z,6.77
2017-08-15T21:17:17.927Z,7.60
2017-08-15T21:19:45.679Z,7.03
2017-08-15T21:22:13.279Z,8.13
2017-08-15T21:24:40.930Z,7.20
2017-08-15T21:27:08.545Z,8.23
2017-08-15T21:29:36.992Z,7.70
2017-08-15T21:32:04.629Z,8.80
2017-08-15T21:34:32.241Z,8.10
2017-08-15T21:36:59.924Z,9.03
2017-08-15T21:39:27.527Z,7.47
2017-08-15T21:41:55.163Z,7.07
2017-08-15T21:44:22.782Z,7.20
2017-08-15T21:46:50.430Z,8.37
2017-08-15T21:49:18.044Z,8.87
2017-08-15T21:51:45.662Z,8.40
2017-08-15T21:54:13.367Z,6.70
2017-08-15T21:56:40.982Z,7.63
2017-08-15T21:59:08.622Z,11.63
2017-08-15T22:01:41.827Z,7.30
2017-08-15T22:04:09.477Z,7.10
2017-08-15T22:06:37.132Z,7.80
2017-08-15T22:09:05.546Z,6.97
2017-08-15T22:11:33.183Z,7.80
2017-08-15T22:14:00.808Z,7.30
2017-08-15T22:16:28.485Z,9.23
2017-08-15T22:18:56.125Z,8.63
2017-08-15T22:21:23.740Z,6.70
2017-08-15T22:23:51.371Z,8.50
2017-08-15T22:26:19.858Z,7.40
2017-08-15T22:28:48.275Z,8.77
2017-08-15T22:31:15.896Z,8.57
2017-08-15T22:33:43.503Z,8.60
2017-08-15T22:36:11.918Z,7.87
2017-08-15T22:38:39.531Z,9.00
2017-08-15T22:41:07.174Z,8.40
2017-08-15T22:43:35.552Z,8.07
2017-08-15T22:46:03.166Z,8.50
2017-08-15T22:48:31.591Z,9.20
2017-08-15T22:50:59.190Z,9.43
2017-08-15T22:53:27.591Z,8.70
2017-08-15T22:55:55.187Z,9.90
2017-08-15T22:58:23.561Z,8.13
2017-08-15T23:00:51.952Z,8.83
2017-08-15T23:03:19.621Z,8.30
2017-08-15T23:05:47.270Z,8.90
2017-08-15T23:08:14.894Z,8.47
2017-08-15T23:10:42.508Z,7.83
2017-08-15T23:13:10.928Z,8.90
2017-08-15T23:15:38.550Z,7.50
2017-08-15T23:18:06.196Z,8.83
2017-08-15T23:20:33.814Z,8.27
2017-08-15T23:23:01.424Z,7.70
2017-08-15T23:25:29.055Z,7.27
2017-08-15T23:27:56.669Z,9.57
2017-08-15T23:30:24.317Z,8.20
2017-08-15T23:32:51.925Z,9.37
2017-08-15T23:35:19.572Z,7.87
2017-08-15T23:37:47.225Z,8.00
2017-08-15T23:40:16.455Z,8.50
2017-08-15T23:42:44.098Z,7.40
2017-08-15T23:45:11.709Z,9.17
2017-08-15T23:47:39.316Z,7.90
2017-08-15T23:50:06.950Z,7.80
2017-08-15T23:52:34.552Z,8.53
2017-08-15T23:55:02.197Z,8.50
2017-08-15T23:57:30.572Z,9.40
2017-08-15T23:59:58.188Z,10.10
